Terminal Aerodrome Forecast
Issued by NWS Melbourne, FL

Home | Current Version | Previous Version | Text Only | Print | Product List | Glossary On
Versions: 1 2 3 4 5 6 7 8 9 10 11 12 13
168
FTUS42 KMLB 270541
TAFDAB
TAF
KDAB 270541Z 2706/2806 25003KT P6SM SCT035 SCT250
     FM271400 25004KT P6SM SCT030
     FM271900 15007KT P6SM SCT035
     FM272100 15007KT P6SM VCSH SCT040
     FM280000 22003KT P6SM FEW030 SCT250=

USA.gov is the U.S. government's official web portal to all federal, state and local government web resources and services.